Time;durP1;ratioP1;P1;durP2;ratioP2;P2;SDS_P1;SDS_P2;PMS_P1;PMS_P2;Temp;Humidity;BMP_temperature;BMP_pressure;BME280_temperature;BME280_humidity;BME280_pressure;Samples;Min_cycle;Max_cycle;Signal;HPM_P1;HPM_P2
2022/10/19 00:01:56;;;;;;;0.57;0.57;;;10.90;99.90;;;;;;5026546;28;20802;-80
2022/10/19 00:04:21;;;;;;;0.60;0.60;;;10.90;99.90;;;;;;5027271;28;21217;-81
2022/10/19 00:06:47;;;;;;;0.50;0.50;;;10.90;99.90;;;;;;5017426;27;20116;-81
2022/10/19 00:09:17;;;;;;;0.60;0.60;;;10.80;99.90;;;;;;5032333;27;20825;-80
2022/10/19 00:11:46;;;;;;;0.60;0.60;;;10.80;99.90;;;;;;5030548;27;20137;-79
2022/10/19 00:14:18;;;;;;;0.50;0.50;;;10.80;99.90;;;;;;5029429;27;20047;-79
2022/10/19 00:16:51;;;;;;;0.60;0.60;;;10.70;99.90;;;;;;5027166;27;20079;-80
2022/10/19 00:19:21;;;;;;;0.60;0.60;;;10.60;99.90;;;;;;5041698;27;20431;-80
2022/10/19 00:21:47;;;;;;;0.52;0.52;;;10.50;99.90;;;;;;5040785;27;20066;-80
2022/10/19 00:24:13;;;;;;;0.50;0.50;;;10.40;99.90;;;;;;5031984;27;20076;-80
2022/10/19 00:26:39;;;;;;;0.57;0.57;;;10.40;99.90;;;;;;5033325;27;20346;-80
2022/10/19 00:29:05;;;;;;;0.60;0.60;;;10.30;99.90;;;;;;5033739;27;20454;-79
2022/10/19 00:31:32;;;;;;;0.60;0.60;;;10.20;99.90;;;;;;5041789;27;20046;-80
2022/10/19 00:33:58;;;;;;;0.60;0.60;;;10.10;99.90;;;;;;5038539;27;20043;-80
2022/10/19 00:36:26;;;;;;;0.60;0.60;;;10.00;99.90;;;;;;5038344;27;20412;-80
2022/10/19 00:38:54;;;;;;;0.60;0.60;;;10.00;99.90;;;;;;5047295;27;20129;-80
2022/10/19 00:41:21;;;;;;;0.60;0.60;;;10.00;99.90;;;;;;5033444;27;20371;-80
2022/10/19 00:44:04;;;;;;;0.60;0.60;;;10.00;99.90;;;;;;5047443;27;20218;-80
2022/10/19 00:46:33;;;;;;;0.60;0.60;;;9.90;99.90;;;;;;5048916;27;20062;-80
2022/10/19 00:49:14;;;;;;;0.50;0.50;;;9.80;99.90;;;;;;5064703;27;20053;-80
2022/10/19 00:51:43;;;;;;;0.60;0.60;;;9.70;99.90;;;;;;5044842;27;20127;-80
2022/10/19 00:54:11;;;;;;;0.60;0.60;;;9.80;99.90;;;;;;5052298;27;20047;-80
2022/10/19 00:56:40;;;;;;;0.60;0.60;;;9.70;99.90;;;;;;5040065;27;20125;-80
2022/10/19 00:59:08;;;;;;;0.60;0.60;;;9.60;99.90;;;;;;5035582;27;20061;-80
2022/10/19 01:01:34;;;;;;;0.60;0.60;;;9.50;99.90;;;;;;5031916;27;21011;-80
2022/10/19 01:04:00;;;;;;;0.60;0.60;;;9.50;99.90;;;;;;5023079;27;20042;-80
2022/10/19 01:06:27;;;;;;;0.60;0.60;;;9.40;99.90;;;;;;5036605;27;20045;-80
2022/10/19 01:08:58;;;;;;;0.60;0.60;;;9.30;99.90;;;;;;5055753;27;20087;-80
2022/10/19 01:11:50;;;;;;;0.60;0.60;;;9.20;99.90;;;;;;5062160;27;20354;-80
2022/10/19 01:14:32;;;;;;;0.60;0.60;;;9.10;99.90;;;;;;5037242;27;20060;-80
2022/10/19 01:17:01;;;;;;;0.60;0.60;;;9.00;99.90;;;;;;5010593;27;20336;-80
2022/10/19 01:19:27;;;;;;;0.60;0.60;;;9.00;99.90;;;;;;5054691;27;20218;-80
2022/10/19 01:22:32;;;;;;;0.60;0.60;;;8.90;99.90;;;;;;5063286;27;20868;-80
2022/10/19 01:25:13;;;;;;;0.60;0.60;;;8.90;99.90;;;;;;5052459;27;20051;-80
2022/10/19 01:28:08;;;;;;;0.55;0.55;;;8.90;99.90;;;;;;5020877;27;20424;-81
2022/10/19 01:30:57;;;;;;;0.60;0.60;;;8.90;99.90;;;;;;5067909;27;20030;-81
2022/10/19 01:33:36;;;;;;;0.60;0.60;;;8.90;99.90;;;;;;5033795;27;20126;-80
2022/10/19 01:36:06;;;;;;;0.60;0.60;;;8.90;99.90;;;;;;5044583;27;20117;-80
2022/10/19 01:39:06;;;;;;;0.60;0.60;;;8.90;99.90;;;;;;5049141;27;20800;-81
2022/10/19 01:41:46;;;;;;;0.60;0.60;;;8.90;99.90;;;;;;5025205;27;20057;-80
2022/10/19 01:44:37;;;;;;;0.60;0.60;;;9.00;99.90;;;;;;5056969;27;20138;-80
2022/10/19 01:47:13;;;;;;;0.60;0.60;;;9.00;99.90;;;;;;5040490;27;20522;-81
2022/10/19 01:49:52;;;;;;;0.60;0.60;;;9.10;99.90;;;;;;5039964;27;20530;-80
2022/10/19 01:52:20;;;;;;;0.50;0.50;;;9.10;99.90;;;;;;5058574;27;21021;-80
2022/10/19 01:54:54;;;;;;;0.60;0.60;;;9.20;99.90;;;;;;5042450;27;20163;-80
2022/10/19 01:57:24;;;;;;;0.60;0.60;;;9.20;99.90;;;;;;5055027;27;20443;-80
2022/10/19 01:59:51;;;;;;;0.60;0.60;;;9.30;99.90;;;;;;5056776;27;20449;-80
2022/10/19 02:02:18;;;;;;;0.60;0.60;;;9.30;99.90;;;;;;5053927;27;20473;-80
2022/10/19 02:04:47;;;;;;;0.60;0.60;;;9.30;99.90;;;;;;5045372;27;20047;-81
2022/10/19 02:07:14;;;;;;;0.60;0.60;;;9.20;99.90;;;;;;5034346;27;21044;-80
2022/10/19 02:09:40;;;;;;;0.52;0.52;;;9.30;99.90;;;;;;5022717;27;20084;-81
2022/10/19 02:12:10;;;;;;;0.60;0.60;;;9.40;99.90;;;;;;5031447;27;20081;-80
2022/10/19 02:14:45;;;;;;;0.60;0.60;;;9.40;99.90;;;;;;5048127;27;20050;-80
2022/10/19 02:17:24;;;;;;;0.60;0.60;;;9.40;99.90;;;;;;5022647;27;20050;-80
2022/10/19 02:19:52;;;;;;;0.60;0.60;;;9.50;99.90;;;;;;5049391;27;20211;-80
2022/10/19 02:22:19;;;;;;;0.60;0.60;;;9.40;99.90;;;;;;5058977;27;20042;-80
2022/10/19 02:24:47;;;;;;;0.57;0.57;;;9.40;99.90;;;;;;5035232;27;20042;-80
2022/10/19 02:27:13;;;;;;;0.60;0.60;;;9.50;99.90;;;;;;5024237;27;20043;-80
2022/10/19 02:29:40;;;;;;;0.60;0.60;;;9.50;99.90;;;;;;5053941;27;20042;-80
2022/10/19 02:32:08;;;;;;;0.50;0.50;;;9.50;99.90;;;;;;5044189;27;20494;-80
2022/10/19 02:34:36;;;;;;;0.60;0.60;;;9.60;99.90;;;;;;5032043;27;20145;-80
2022/10/19 02:37:03;;;;;;;0.60;0.60;;;9.60;99.90;;;;;;5037372;27;20153;-81
2022/10/19 02:39:29;;;;;;;0.60;0.60;;;9.50;99.90;;;;;;5053181;27;20360;-80
2022/10/19 02:42:11;;;;;;;0.60;0.60;;;9.50;99.90;;;;;;5037910;27;20879;-80
2022/10/19 02:44:54;;;;;;;0.55;0.55;;;9.60;99.90;;;;;;5060437;27;20893;-80
2022/10/19 02:47:24;;;;;;;0.60;0.60;;;9.40;99.90;;;;;;5053802;27;20054;-80
2022/10/19 02:49:51;;;;;;;0.50;0.50;;;9.50;99.90;;;;;;5035318;27;20495;-80
2022/10/19 02:52:17;;;;;;;0.60;0.60;;;9.50;99.90;;;;;;5062681;27;20039;-80
2022/10/19 02:54:44;;;;;;;0.60;0.60;;;9.60;99.90;;;;;;5062583;27;20528;-80
2022/10/19 02:57:19;;;;;;;0.60;0.60;;;9.60;99.90;;;;;;5020869;27;20403;-80
2022/10/19 02:59:45;;;;;;;0.60;0.60;;;9.60;99.90;;;;;;5025805;27;20053;-81
2022/10/19 03:02:12;;;;;;;0.55;0.55;;;9.60;99.90;;;;;;5052904;27;20096;-80
2022/10/19 03:04:40;;;;;;;0.60;0.60;;;9.60;99.90;;;;;;5059871;27;20052;-80
2022/10/19 03:07:10;;;;;;;0.60;0.60;;;9.50;99.90;;;;;;5055820;27;20047;-80
2022/10/19 03:09:36;;;;;;;0.60;0.60;;;9.60;99.90;;;;;;5055618;27;20051;-80
2022/10/19 03:12:02;;;;;;;0.60;0.60;;;9.60;99.90;;;;;;5053845;27;20039;-80
2022/10/19 03:14:28;;;;;;;0.60;0.60;;;9.60;99.90;;;;;;5034091;27;20055;-80
2022/10/19 03:16:54;;;;;;;0.60;0.60;;;9.60;99.90;;;;;;5035164;27;20139;-80
2022/10/19 03:19:20;;;;;;;0.60;0.60;;;9.50;99.90;;;;;;5053313;27;20552;-80
2022/10/19 03:21:46;;;;;;;0.60;0.60;;;9.60;99.90;;;;;;5029466;27;20047;-80
2022/10/19 03:24:12;;;;;;;0.60;0.60;;;9.50;99.90;;;;;;5013448;27;20929;-80
2022/10/19 03:26:38;;;;;;;0.60;0.60;;;9.60;99.90;;;;;;5054884;27;20051;-80
2022/10/19 03:29:04;;;;;;;0.60;0.60;;;9.60;99.90;;;;;;5057493;27;20049;-81
2022/10/19 03:31:30;;;;;;;0.60;0.60;;;9.60;99.90;;;;;;5051061;27;20154;-80
2022/10/19 03:33:56;;;;;;;0.60;0.60;;;9.70;99.90;;;;;;5039673;27;20130;-81
2022/10/19 03:36:36;;;;;;;0.50;0.50;;;9.70;99.90;;;;;;5036498;27;20038;-80
2022/10/19 03:39:05;;;;;;;0.60;0.60;;;9.70;99.90;;;;;;5034915;27;20817;-80
2022/10/19 03:41:33;;;;;;;0.60;0.60;;;9.70;99.90;;;;;;5032756;27;20883;-80
2022/10/19 03:44:01;;;;;;;0.60;0.60;;;9.70;99.90;;;;;;5058993;27;20057;-80
2022/10/19 03:46:27;;;;;;;0.60;0.60;;;9.60;99.90;;;;;;5056364;27;20190;-80
2022/10/19 03:48:54;;;;;;;0.60;0.60;;;9.80;99.90;;;;;;5029522;27;20107;-80
2022/10/19 03:51:25;;;;;;;0.60;0.60;;;9.70;99.90;;;;;;5041473;27;20047;-80
2022/10/19 03:53:53;;;;;;;0.60;0.60;;;9.80;99.90;;;;;;5051582;27;20042;-80
2022/10/19 03:56:24;;;;;;;0.60;0.60;;;9.80;99.90;;;;;;5023176;27;20038;-80
2022/10/19 03:58:52;;;;;;;0.60;0.60;;;9.80;99.90;;;;;;5025006;27;20434;-80
2022/10/19 04:01:35;;;;;;;0.60;0.60;;;9.70;99.90;;;;;;5054702;27;20050;-81
2022/10/19 04:04:09;;;;;;;0.52;0.52;;;9.70;99.90;;;;;;5064376;27;20039;-80
2022/10/19 04:06:38;;;;;;;0.60;0.60;;;9.70;99.90;;;;;;5056389;27;20066;-80
2022/10/19 04:09:06;;;;;;;0.60;0.60;;;9.70;99.90;;;;;;5033983;27;20047;-81
2022/10/19 04:11:36;;;;;;;0.60;0.60;;;9.60;99.90;;;;;;5051010;27;20234;-81
2022/10/19 04:14:03;;;;;;;0.60;0.60;;;9.60;99.90;;;;;;5038178;27;20500;-81
2022/10/19 04:16:30;;;;;;;0.60;0.60;;;9.60;99.90;;;;;;5052416;27;20058;-81
2022/10/19 04:18:57;;;;;;;0.60;0.60;;;9.60;99.90;;;;;;5039515;27;20058;-81
2022/10/19 04:21:24;;;;;;;0.60;0.60;;;9.50;99.90;;;;;;5059808;27;20134;-81
2022/10/19 04:23:56;;;;;;;0.60;0.60;;;9.50;99.90;;;;;;5034635;27;20099;-81
2022/10/19 04:26:22;;;;;;;0.60;0.60;;;9.50;99.90;;;;;;5047436;27;20262;-81
2022/10/19 04:28:49;;;;;;;0.60;0.60;;;9.50;99.90;;;;;;5034790;27;20074;-81
2022/10/19 04:31:14;;;;;;;0.60;0.60;;;9.40;99.90;;;;;;5009268;27;20956;-81
2022/10/19 04:33:40;;;;;;;0.60;0.60;;;9.50;99.90;;;;;;5042191;27;20039;-81
2022/10/19 04:36:08;;;;;;;0.60;0.60;;;9.50;99.90;;;;;;5038411;27;20074;-81
2022/10/19 04:38:36;;;;;;;0.60;0.60;;;9.50;99.90;;;;;;5042135;27;20531;-81
2022/10/19 04:41:04;;;;;;;0.60;0.60;;;9.60;99.90;;;;;;5054951;27;20125;-81
2022/10/19 04:43:30;;;;;;;0.60;0.60;;;9.50;99.90;;;;;;5060959;27;20050;-81
2022/10/19 04:46:00;;;;;;;0.60;0.60;;;9.40;99.90;;;;;;5054534;27;20047;-81
2022/10/19 04:48:26;;;;;;;0.60;0.60;;;9.60;99.90;;;;;;5016321;28;20296;-81
2022/10/19 04:50:54;;;;;;;0.60;0.60;;;9.60;99.90;;;;;;5012695;28;20050;-81
2022/10/19 04:53:21;;;;;;;0.60;0.60;;;9.60;99.90;;;;;;5010066;28;20104;-81
2022/10/19 04:55:47;;;;;;;0.60;0.60;;;9.70;99.90;;;;;;5008000;28;20040;-81
2022/10/19 04:58:12;;;;;;;0.52;0.52;;;9.60;99.90;;;;;;5001274;28;20039;-81
2022/10/19 05:00:38;;;;;;;0.60;0.60;;;9.50;99.90;;;;;;4999218;28;20051;-81
2022/10/19 05:03:04;;;;;;;0.60;0.60;;;9.60;99.90;;;;;;5017926;28;20555;-81
2022/10/19 05:05:32;;;;;;;0.60;0.60;;;9.70;99.90;;;;;;5016449;28;20746;-81
2022/10/19 05:07:57;;;;;;;0.60;0.60;;;9.70;99.90;;;;;;5012679;28;20047;-80
2022/10/19 05:10:23;;;;;;;0.60;0.60;;;9.70;99.90;;;;;;4999122;28;20429;-81
2022/10/19 05:12:55;;;;;;;0.60;0.60;;;9.70;99.90;;;;;;5006122;28;20043;-81
2022/10/19 05:15:21;;;;;;;0.60;0.60;;;9.70;99.90;;;;;;5020371;28;20043;-81
2022/10/19 05:17:47;;;;;;;0.60;0.60;;;9.80;99.90;;;;;;5020086;28;20097;-81
2022/10/19 05:20:14;;;;;;;0.60;0.60;;;9.70;99.90;;;;;;5013565;28;20051;-81
2022/10/19 05:22:39;;;;;;;0.60;0.60;;;9.70;99.90;;;;;;5015073;28;20039;-81
2022/10/19 05:25:06;;;;;;;0.52;0.52;;;9.60;99.90;;;;;;5019495;28;20059;-81
2022/10/19 05:27:32;;;;;;;0.55;0.55;;;9.60;99.90;;;;;;5032663;27;20055;-81
2022/10/19 05:29:58;;;;;;;0.60;0.60;;;9.50;99.90;;;;;;4999631;28;20393;-81
2022/10/19 05:32:25;;;;;;;0.60;0.60;;;9.50;99.90;;;;;;5013155;28;20408;-81
2022/10/19 05:34:51;;;;;;;0.60;0.60;;;9.60;99.90;;;;;;5018684;28;20048;-81
2022/10/19 05:37:18;;;;;;;0.60;0.60;;;9.60;99.90;;;;;;5009400;28;20100;-81
2022/10/19 05:39:43;;;;;;;0.55;0.55;;;9.60;99.90;;;;;;4996632;28;20531;-81
2022/10/19 05:42:09;;;;;;;0.60;0.60;;;9.70;99.90;;;;;;5014603;28;20047;-82
2022/10/19 05:44:36;;;;;;;0.60;0.60;;;9.80;99.90;;;;;;5015786;28;20075;-81
2022/10/19 05:47:01;;;;;;;0.60;0.60;;;9.80;99.90;;;;;;5002506;27;20871;-81
2022/10/19 05:49:28;;;;;;;0.60;0.60;;;9.90;99.90;;;;;;5019751;27;20051;-81
2022/10/19 05:51:57;;;;;;;0.55;0.55;;;9.80;99.90;;;;;;5033121;27;20270;-81
2022/10/19 05:54:23;;;;;;;0.60;0.60;;;9.80;99.90;;;;;;5041853;27;20043;-81
2022/10/19 05:56:49;;;;;;;0.60;0.60;;;9.80;99.90;;;;;;5039422;27;20047;-81
2022/10/19 05:59:19;;;;;;;0.60;0.60;;;9.70;99.90;;;;;;5036350;27;20043;-82
2022/10/19 06:01:46;;;;;;;0.60;0.60;;;9.80;99.90;;;;;;5037728;27;20043;-81
2022/10/19 06:04:13;;;;;;;0.60;0.60;;;9.80;99.90;;;;;;5032139;27;20043;-81
2022/10/19 06:06:41;;;;;;;0.60;0.60;;;9.80;99.90;;;;;;5031909;27;20063;-82
2022/10/19 06:09:09;;;;;;;0.60;0.60;;;9.80;99.90;;;;;;5036094;27;20039;-82
2022/10/19 06:11:43;;;;;;;0.60;0.60;;;9.80;99.90;;;;;;5037047;27;20078;-81
2022/10/19 06:14:14;;;;;;;0.60;0.60;;;9.80;99.90;;;;;;5033766;27;20146;-82
2022/10/19 06:16:40;;;;;;;0.60;0.60;;;9.80;99.90;;;;;;5012492;27;20046;-82
2022/10/19 06:19:06;;;;;;;0.60;0.60;;;9.80;99.90;;;;;;5018034;27;20507;-81
2022/10/19 06:21:33;;;;;;;0.60;0.60;;;9.80;99.90;;;;;;5037438;27;20209;-81
2022/10/19 06:24:02;;;;;;;0.60;0.60;;;9.70;99.90;;;;;;5037577;27;20070;-81
2022/10/19 06:26:32;;;;;;;0.60;0.60;;;9.60;99.90;;;;;;5033480;27;20035;-81
2022/10/19 06:29:00;;;;;;;0.60;0.60;;;9.80;99.90;;;;;;5034821;27;20078;-82
2022/10/19 06:31:27;;;;;;;0.60;0.60;;;9.70;99.90;;;;;;5043028;27;20043;-81
2022/10/19 06:34:01;;;;;;;0.60;0.60;;;9.70;99.90;;;;;;5037218;27;20500;-82
2022/10/19 06:36:36;;;;;;;0.60;0.60;;;9.70;99.90;;;;;;5035175;27;20047;-79
2022/10/19 06:39:04;;;;;;;0.65;0.65;;;9.70;99.90;;;;;;5036524;27;20428;-78
2022/10/19 06:41:36;;;;;;;0.60;0.60;;;9.80;99.90;;;;;;5033437;27;20050;-82
2022/10/19 06:44:05;;;;;;;0.63;0.63;;;9.80;99.90;;;;;;5022394;27;20054;-81
2022/10/19 06:46:32;;;;;;;0.60;0.60;;;9.90;99.90;;;;;;5034929;27;20051;-80
2022/10/19 06:49:01;;;;;;;0.60;0.60;;;9.90;99.90;;;;;;5032190;27;20146;-81
2022/10/19 06:51:29;;;;;;;0.70;0.70;;;9.90;99.90;;;;;;5050861;27;20047;-80
2022/10/19 06:53:55;;;;;;;0.60;0.60;;;9.90;99.90;;;;;;5049295;27;20593;-79
2022/10/19 06:56:28;;;;;;;0.60;0.60;;;9.90;99.90;;;;;;5040673;27;20042;-80
2022/10/19 06:59:01;;;;;;;0.60;0.60;;;10.00;99.90;;;;;;5036945;27;20526;-81
2022/10/19 07:01:27;;;;;;;0.60;0.60;;;10.10;99.90;;;;;;5055060;27;20043;-80
2022/10/19 07:03:54;;;;;;;0.60;0.60;;;10.10;99.90;;;;;;5058019;27;20467;-81
2022/10/19 07:06:20;;;;;;;0.60;0.60;;;10.20;99.90;;;;;;5039900;27;20048;-80
2022/10/19 07:08:50;;;;;;;0.65;0.65;;;10.20;99.90;;;;;;5041986;27;20436;-82
2022/10/19 07:11:21;;;;;;;0.60;0.60;;;10.30;99.90;;;;;;5052049;27;20039;-81
2022/10/19 07:13:49;;;;;;;0.60;0.60;;;10.30;99.90;;;;;;5038584;27;20141;-80
2022/10/19 07:16:24;;;;;;;0.60;0.60;;;10.40;99.90;;;;;;5039997;27;20038;-81
2022/10/19 07:18:52;;;;;;;0.60;0.60;;;10.50;99.90;;;;;;5029893;27;20057;-81
2022/10/19 07:21:20;;;;;;;0.60;0.60;;;10.60;99.90;;;;;;5025878;27;20106;-81
2022/10/19 07:23:46;;;;;;;0.60;0.60;;;10.50;99.90;;;;;;5037459;27;20066;-80
2022/10/19 07:26:16;;;;;;;0.60;0.60;;;10.60;99.90;;;;;;5037775;27;20070;-81
2022/10/19 07:28:47;;;;;;;0.60;0.60;;;10.80;99.90;;;;;;5039504;27;20059;-81
2022/10/19 07:31:19;;;;;;;0.60;0.60;;;10.80;99.90;;;;;;5039809;27;20739;-80
2022/10/19 07:33:45;;;;;;;0.55;0.55;;;10.90;99.90;;;;;;5039491;27;20061;-82
2022/10/19 07:36:12;;;;;;;0.60;0.60;;;11.00;99.90;;;;;;5036954;27;20566;-81
2022/10/19 07:38:39;;;;;;;0.60;0.60;;;11.00;99.90;;;;;;5040087;27;20063;-81
2022/10/19 07:41:14;;;;;;;0.60;0.60;;;11.10;99.90;;;;;;5058509;27;20168;-82
2022/10/19 07:43:41;;;;;;;0.60;0.60;;;11.20;99.90;;;;;;5058773;27;20038;-81
2022/10/19 07:46:10;;;;;;;0.60;0.60;;;11.20;99.90;;;;;;5038793;27;20063;-81
2022/10/19 07:48:37;;;;;;;0.60;0.60;;;11.30;99.90;;;;;;5039759;27;20406;-79
2022/10/19 07:51:06;;;;;;;0.60;0.60;;;11.40;99.90;;;;;;5039081;27;20054;-81
2022/10/19 07:53:33;;;;;;;0.50;0.50;;;11.40;99.90;;;;;;5047354;27;20111;-81
2022/10/19 07:56:22;;;;;;;0.60;0.60;;;11.40;99.90;;;;;;5041483;27;20752;-81
2022/10/19 07:58:53;;;;;;;0.52;0.52;;;11.60;99.90;;;;;;5045735;27;20353;-81
2022/10/19 08:01:22;;;;;;;0.60;0.60;;;11.50;99.90;;;;;;5021338;27;20124;-82
2022/10/19 08:03:51;;;;;;;0.60;0.60;;;11.60;99.90;;;;;;5018198;27;20466;-81
2022/10/19 08:06:18;;;;;;;0.57;0.57;;;11.60;99.90;;;;;;5033222;27;20476;-79
2022/10/19 08:08:48;;;;;;;0.50;0.50;;;11.80;99.90;;;;;;5032600;27;20558;-80
2022/10/19 08:11:17;;;;;;;0.60;0.60;;;12.00;99.90;;;;;;5044182;27;20056;-82
2022/10/19 08:13:44;;;;;;;0.50;0.50;;;11.90;99.90;;;;;;5045222;27;20041;-81
2022/10/19 08:16:28;;;;;;;0.60;0.60;;;12.00;99.90;;;;;;5050536;27;20043;-81
2022/10/19 08:19:01;;;;;;;;;;;12.00;99.90;;;;;;5048587;27;20706;-81
2022/10/19 08:21:29;;;;;;;0.55;0.55;;;12.30;99.90;;;;;;5041918;27;20443;-82
2022/10/19 08:23:54;;;;;;;0.57;0.57;;;12.40;99.90;;;;;;5044191;27;20138;-81
2022/10/19 08:26:21;;;;;;;0.60;0.60;;;12.60;99.90;;;;;;5038265;27;20039;-82
2022/10/19 08:29:04;;;;;;;0.60;0.60;;;12.40;99.90;;;;;;5045739;27;20864;-81
2022/10/19 08:31:31;;;;;;;0.60;0.60;;;12.40;99.90;;;;;;5047422;27;20058;-80
2022/10/19 08:33:57;;;;;;;0.50;0.50;;;12.50;99.90;;;;;;5040732;27;20855;-81
2022/10/19 08:36:31;;;;;;;0.60;0.60;;;12.50;99.90;;;;;;5036403;27;20089;-81
2022/10/19 08:38:57;;;;;;;0.60;0.60;;;12.60;99.90;;;;;;5040058;27;20043;-80
2022/10/19 08:41:34;;;;;;;0.60;0.60;;;12.50;99.90;;;;;;5035405;27;20055;-81
2022/10/19 08:44:09;;;;;;;0.60;0.60;;;12.50;99.90;;;;;;5031856;27;20054;-82
2022/10/19 08:46:58;;;;;;;0.60;0.60;;;12.50;99.90;;;;;;5035388;27;20210;-80
2022/10/19 08:49:28;;;;;;;0.50;0.50;;;12.80;99.90;;;;;;5035907;27;20542;-80
2022/10/19 08:51:58;;;;;;;0.60;0.60;;;13.00;99.90;;;;;;5027601;27;20890;-82
2022/10/19 08:54:34;;;;;;;0.50;0.50;;;12.90;99.90;;;;;;5033760;27;20046;-81
2022/10/19 08:57:27;;;;;;;0.55;0.55;;;12.60;99.90;;;;;;5014062;27;20061;-81
2022/10/19 09:00:19;;;;;;;0.50;0.50;;;12.80;99.90;;;;;;5036005;27;20051;-79
2022/10/19 09:03:05;;;;;;;0.60;0.60;;;12.70;99.90;;;;;;5025858;27;20122;-82
2022/10/19 09:06:05;;;;;;;0.60;0.60;;;12.70;99.90;;;;;;5012524;27;20124;-81
2022/10/19 09:08:35;;;;;;;0.55;0.55;;;12.80;99.90;;;;;;5026652;27;20951;-80
2022/10/19 09:11:11;;;;;;;0.50;0.50;;;12.80;99.90;;;;;;5027333;27;20082;-79
2022/10/19 09:13:49;;;;;;;0.50;0.50;;;12.80;99.90;;;;;;5032208;27;21143;-81
2022/10/19 09:16:19;;;;;;;0.50;0.50;;;12.80;99.90;;;;;;5038513;27;20108;-80
2022/10/19 09:18:56;;;;;;;0.50;0.50;;;12.90;99.90;;;;;;5014245;27;20051;-82
2022/10/19 09:21:45;;;;;;;0.50;0.50;;;13.00;99.90;;;;;;4997813;27;20388;-78
2022/10/19 09:24:45;;;;;;;0.60;0.60;;;13.10;99.90;;;;;;5036132;27;20539;-80
2022/10/19 09:27:32;;;;;;;0.50;0.50;;;13.00;99.90;;;;;;5016740;27;20161;-81
2022/10/19 09:30:17;;;;;;;0.50;0.50;;;13.00;99.90;;;;;;5035648;27;20039;-84
2022/10/19 09:32:44;;;;;;;0.50;0.50;;;13.00;99.90;;;;;;5015072;27;20198;-81
2022/10/19 09:35:16;;;;;;;0.50;0.50;;;12.90;99.90;;;;;;5008845;27;20078;-80
2022/10/19 09:37:47;;;;;;;0.50;0.50;;;12.80;99.90;;;;;;5001703;27;20565;-81
2022/10/19 09:40:18;;;;;;;0.50;0.50;;;12.90;99.90;;;;;;5034064;27;20428;-82
2022/10/19 09:42:55;;;;;;;0.50;0.50;;;12.70;99.90;;;;;;5030271;27;20178;-82
2022/10/19 09:45:35;;;;;;;0.50;0.50;;;12.90;99.90;;;;;;5011142;27;20762;-82
2022/10/19 09:48:09;;;;;;;0.57;0.57;;;12.70;99.90;;;;;;5038306;27;20493;-80
2022/10/19 09:50:42;;;;;;;0.50;0.50;;;12.50;99.90;;;;;;5055624;27;20085;-82
2022/10/19 09:53:17;;;;;;;0.50;0.50;;;12.40;99.90;;;;;;5037581;27;20959;-81
2022/10/19 09:55:46;;;;;;;0.50;0.50;;;12.50;99.90;;;;;;5051954;27;20084;-82
2022/10/19 09:58:12;;;;;;;0.60;0.60;;;12.70;99.90;;;;;;5031588;27;20111;-82
2022/10/19 10:00:45;;;;;;;0.50;0.50;;;13.00;99.90;;;;;;5055116;27;20060;-80
2022/10/19 10:03:42;;;;;;;0.50;0.50;;;12.90;99.90;;;;;;5107589;27;20475;-81
2022/10/19 10:06:15;;;;;;;0.60;0.60;;;12.80;99.90;;;;;;5052550;27;20046;-80
2022/10/19 10:08:46;;;;;;;0.60;0.60;;;12.70;99.90;;;;;;5047295;27;20051;-82
2022/10/19 10:11:24;;;;;;;0.50;0.50;;;12.70;99.90;;;;;;5011493;27;20248;-81
2022/10/19 10:13:52;;;;;;;0.50;0.50;;;12.60;99.90;;;;;;5043169;27;20046;-80
2022/10/19 10:16:22;;;;;;;0.50;0.50;;;12.70;99.90;;;;;;5021718;27;20046;-82
2022/10/19 10:18:56;;;;;;;0.50;0.50;;;12.70;99.90;;;;;;5037684;27;20649;-83
2022/10/19 10:21:34;;;;;;;;;;;12.70;99.90;;;;;;5060365;27;20054;-82
2022/10/19 10:24:04;;;;;;;0.50;0.50;;;12.70;99.90;;;;;;5070130;27;19949;-83
2022/10/19 10:26:34;;;;;;;0.60;0.60;;;12.70;99.90;;;;;;5070358;27;20042;-82
2022/10/19 10:29:52;;;;;;;0.50;0.50;;;12.60;99.90;;;;;;5051360;27;20046;-83
2022/10/19 10:32:28;;;;;;;0.50;0.50;;;13.20;99.90;;;;;;4960427;28;20059;-81
2022/10/19 10:34:56;;;;;;;0.50;0.50;;;13.50;99.90;;;;;;5046761;27;20051;-81
2022/10/19 10:37:47;;;;;;;0.52;0.52;;;13.60;99.90;;;;;;5046977;27;20408;-82
2022/10/19 10:40:21;;;;;;;0.50;0.50;;;13.40;99.90;;;;;;5046471;27;20055;-81
2022/10/19 10:42:49;;;;;;;0.50;0.50;;;13.30;99.90;;;;;;5058879;27;20073;-79
2022/10/19 10:45:28;;;;;;;0.50;0.50;;;13.40;99.90;;;;;;5057427;27;20429;-82
2022/10/19 10:47:55;;;;;;;0.50;0.50;;;13.90;99.90;;;;;;5056255;27;20514;-81
2022/10/19 10:50:25;;;;;;;0.50;0.50;;;13.80;99.90;;;;;;5043306;27;20062;-78
2022/10/19 10:53:02;;;;;;;0.50;0.50;;;13.60;99.90;;;;;;5021738;27;20050;-81
2022/10/19 10:55:31;;;;;;;0.50;0.50;;;13.40;99.90;;;;;;5036556;27;20074;-81
2022/10/19 10:58:38;;;;;;;0.50;0.50;;;13.20;99.90;;;;;;5020944;27;20502;-80
2022/10/19 11:01:15;;;;;;;0.50;0.50;;;13.20;99.90;;;;;;5020284;27;20039;-81
2022/10/19 11:03:56;;;;;;;0.50;0.50;;;13.40;99.90;;;;;;5048161;27;20542;-81
2022/10/19 11:06:25;;;;;;;0.50;0.50;;;13.60;99.90;;;;;;5049113;27;20342;-79
2022/10/19 11:09:29;;;;;;;0.50;0.50;;;13.70;99.90;;;;;;5033132;27;20249;-79
2022/10/19 11:12:02;;;;;;;0.50;0.50;;;13.40;99.90;;;;;;5048477;27;20128;-80
2022/10/19 11:14:55;;;;;;;0.50;0.50;;;13.60;99.90;;;;;;5040498;27;20831;-79
2022/10/19 11:17:29;;;;;;;0.50;0.50;;;13.40;99.90;;;;;;5030071;27;20434;-81
2022/10/19 11:20:10;;;;;;;0.50;0.50;;;13.40;99.90;;;;;;5060156;27;20068;-82
2022/10/19 11:23:16;;;;;;;0.55;0.55;;;13.40;99.90;;;;;;5027708;27;20039;-81
2022/10/19 11:25:58;;;;;;;0.60;0.60;;;13.80;99.90;;;;;;5060665;27;20054;-83
2022/10/19 11:28:56;;;;;;;0.52;0.52;;;14.30;99.90;;;;;;5046882;27;20050;-80
2022/10/19 11:31:32;;;;;;;0.50;0.50;;;14.30;99.90;;;;;;5052379;27;20039;-80
2022/10/19 11:34:45;;;;;;;0.50;0.50;;;14.80;99.90;;;;;;5040912;27;20417;-81
2022/10/19 11:37:24;;;;;;;0.50;0.50;;;14.50;99.90;;;;;;5038525;27;20493;-80
2022/10/19 11:40:31;;;;;;;0.50;0.50;;;14.20;99.90;;;;;;5035591;27;20062;-79
2022/10/19 11:43:32;;;;;;;0.50;0.50;;;14.40;99.90;;;;;;5032154;27;20055;-81
2022/10/19 11:46:37;;;;;;;0.50;0.50;;;14.00;99.90;;;;;;5044951;27;20342;-81
2022/10/19 11:49:10;;;;;;;0.50;0.50;;;13.70;99.90;;;;;;4950735;27;20723;-80
2022/10/19 11:51:56;;;;;;;0.50;0.50;;;13.60;99.90;;;;;;5045814;27;20058;-81
2022/10/19 11:54:35;;;;;;;0.50;0.50;;;13.80;99.90;;;;;;5038824;27;20099;-78
2022/10/19 11:57:23;;;;;;;0.50;0.50;;;13.60;99.90;;;;;;5016335;27;20039;-81
2022/10/19 12:00:15;;;;;;;0.50;0.50;;;13.60;99.90;;;;;;5053777;27;20520;-82
2022/10/19 12:03:00;;;;;;;0.50;0.50;;;13.30;99.90;;;;;;5053440;27;20657;-81
2022/10/19 12:05:48;;;;;;;0.50;0.50;;;13.50;99.90;;;;;;5066277;27;20975;-80
2022/10/19 12:08:40;;;;;;;0.50;0.50;;;13.60;99.90;;;;;;5040108;27;20436;-82
2022/10/19 12:11:18;;;;;;;0.50;0.50;;;13.90;99.90;;;;;;5041871;27;20042;-80
2022/10/19 12:13:54;;;;;;;0.50;0.50;;;14.00;99.90;;;;;;5058620;27;20043;-80
2022/10/19 12:16:22;;;;;;;0.50;0.50;;;14.00;99.90;;;;;;5047581;27;20391;-82
2022/10/19 12:18:57;;;;;;;0.50;0.50;;;14.20;99.90;;;;;;5041607;27;20682;-80
2022/10/19 12:21:30;;;;;;;0.50;0.50;;;13.90;99.90;;;;;;5043459;27;20047;-80
2022/10/19 12:24:05;;;;;;;0.50;0.50;;;14.10;99.90;;;;;;5035739;27;20699;-81
2022/10/19 12:26:35;;;;;;;0.50;0.50;;;14.10;99.90;;;;;;5056273;27;20592;-82
2022/10/19 12:29:12;;;;;;;0.50;0.50;;;13.80;99.90;;;;;;5059633;27;20981;-82
2022/10/19 12:31:38;;;;;;;0.50;0.50;;;14.10;99.90;;;;;;5035808;27;20756;-80
2022/10/19 12:34:26;;;;;;;0.50;0.50;;;13.90;99.90;;;;;;5038080;27;20049;-83
2022/10/19 12:37:01;;;;;;;0.50;0.50;;;13.90;99.90;;;;;;5047137;27;20047;-82
2022/10/19 12:40:10;;;;;;;0.50;0.50;;;14.20;99.90;;;;;;5035200;27;20832;-80
2022/10/19 12:42:50;;;;;;;0.50;0.50;;;14.00;99.90;;;;;;5043571;27;20135;-81
2022/10/19 12:45:20;;;;;;;0.50;0.50;;;14.00;99.90;;;;;;5057324;27;20065;-81
2022/10/19 12:48:13;;;;;;;0.50;0.50;;;14.00;99.90;;;;;;5039420;27;20095;-81
2022/10/19 12:51:00;;;;;;;0.57;0.57;;;13.80;99.90;;;;;;5037978;27;20051;-82
2022/10/19 12:53:38;;;;;;;0.50;0.50;;;13.90;99.90;;;;;;5045724;27;20046;-81
2022/10/19 12:56:10;;;;;;;0.50;0.50;;;14.00;99.90;;;;;;5063896;27;20129;-81
2022/10/19 12:58:42;;;;;;;0.50;0.50;;;14.00;99.90;;;;;;5041291;27;20042;-81
2022/10/19 13:01:20;;;;;;;0.50;0.50;;;13.70;99.90;;;;;;5051373;27;20046;-80
2022/10/19 13:03:52;;;;;;;0.50;0.50;;;13.50;99.90;;;;;;5046318;27;20540;-82
2022/10/19 13:06:29;;;;;;;0.60;0.60;;;13.40;99.90;;;;;;5048485;27;20077;-81
2022/10/19 13:08:59;;;;;;;0.57;0.57;;;13.40;99.90;;;;;;5067857;27;20313;-81
2022/10/19 13:11:25;;;;;;;0.50;0.50;;;13.40;99.90;;;;;;5061242;27;20146;-82
2022/10/19 13:13:59;;;;;;;0.50;0.50;;;13.40;99.90;;;;;;5030149;27;20506;-81
2022/10/19 13:16:38;;;;;;;0.50;0.50;;;13.50;99.90;;;;;;5040139;27;20069;-82
2022/10/19 13:19:13;;;;;;;0.50;0.50;;;13.70;99.90;;;;;;5050658;27;20050;-82
2022/10/19 13:21:54;;;;;;;0.50;0.50;;;13.70;99.90;;;;;;5066455;27;20038;-81
2022/10/19 13:24:22;;;;;;;0.60;0.60;;;13.60;99.90;;;;;;5066697;27;20480;-82